Time;durP1;ratioP1;P1;durP2;ratioP2;P2;SDS_P1;SDS_P2;PMS_P1;PMS_P2;Temp;Humidity;BMP_temperature;BMP_pressure;BME280_temperature;BME280_humidity;BME280_pressure;Samples;Min_cycle;Max_cycle;Signal;HPM_P1;HPM_P2
2023/08/09 00:01:08;;;;;;;1.80;1.03;;;;;;;;;;6221256;28;20222;-65
2023/08/09 00:04:09;;;;;;;2.50;1.30;;;;;;;;;;6221843;28;20208;-65
2023/08/09 00:07:10;;;;;;;1.40;1.30;;;;;;;;;;6220471;28;20207;-65
2023/08/09 00:10:11;;;;;;;2.10;1.20;;;;;;;;;;6207096;28;20263;-65
2023/08/09 00:13:12;;;;;;;1.73;1.27;;;;;;;;;;6220279;28;20187;-65
2023/08/09 00:16:13;;;;;;;2.20;1.10;;;;;;;;;;6225239;28;20191;-65
2023/08/09 00:19:15;;;;;;;2.17;1.40;;;;;;;;;;6225932;28;20199;-65
2023/08/09 00:22:16;;;;;;;2.37;1.27;;;;;;;;;;6219914;28;20192;-65
2023/08/09 00:25:18;;;;;;;2.27;1.27;;;;;;;;;;6230450;28;20195;-65
2023/08/09 00:28:19;;;;;;;1.70;1.30;;;;;;;;;;6219301;28;20502;-65
2023/08/09 00:31:20;;;;;;;1.83;1.47;;;;;;;;;;6204155;28;20195;-65
2023/08/09 00:34:21;;;;;;;1.57;1.03;;;;;;;;;;6217598;28;20199;-65
2023/08/09 00:37:22;;;;;;;2.50;1.47;;;;;;;;;;6213386;28;20239;-65
2023/08/09 00:40:23;;;;;;;1.27;1.17;;;;;;;;;;6229749;28;20183;-65
2023/08/09 00:43:24;;;;;;;3.63;1.50;;;;;;;;;;6216219;28;20207;-65
2023/08/09 00:46:25;;;;;;;4.57;1.33;;;;;;;;;;6212894;28;20227;-65
2023/08/09 00:49:27;;;;;;;2.80;1.10;;;;;;;;;;6225752;28;20210;-65
2023/08/09 00:52:28;;;;;;;1.67;1.20;;;;;;;;;;6218803;28;20194;-65
2023/08/09 00:55:29;;;;;;;3.40;1.30;;;;;;;;;;6195399;28;20413;-65
2023/08/09 00:58:30;;;;;;;2.87;1.23;;;;;;;;;;6216151;28;20207;-65
2023/08/09 01:01:31;;;;;;;2.70;1.40;;;;;;;;;;6228668;28;20208;-65
2023/08/09 01:04:32;;;;;;;1.20;1.10;;;;;;;;;;6223714;28;20198;-65
2023/08/09 01:07:39;;;;;;;2.33;1.50;;;;;;;;;;6237644;28;20230;-65
2023/08/09 01:10:44;;;;;;;2.87;1.60;;;;;;;;;;6240418;28;20247;-65
2023/08/09 01:13:45;;;;;;;2.13;1.30;;;;;;;;;;6240844;28;20184;-65
2023/08/09 01:16:46;;;;;;;1.43;1.13;;;;;;;;;;6211994;28;20195;-65
2023/08/09 01:19:49;;;;;;;2.60;1.50;;;;;;;;;;6222041;28;20230;-65
2023/08/09 01:23:01;;;;;;;2.63;1.50;;;;;;;;;;6236094;28;20196;-65
2023/08/09 01:26:04;;;;;;;1.93;1.50;;;;;;;;;;6241397;28;20199;-65
2023/08/09 01:29:05;;;;;;;3.00;1.53;;;;;;;;;;6217642;28;20197;-65
2023/08/09 01:32:06;;;;;;;2.60;1.60;;;;;;;;;;6222924;28;20191;-65
2023/08/09 01:35:07;;;;;;;2.83;1.53;;;;;;;;;;6200176;28;20196;-65
2023/08/09 01:38:11;;;;;;;5.47;1.70;;;;;;;;;;6235717;28;20251;-65
2023/08/09 01:41:13;;;;;;;3.20;1.30;;;;;;;;;;6234914;28;20200;-65
2023/08/09 01:44:14;;;;;;;3.47;1.40;;;;;;;;;;6239233;28;20266;-65
2023/08/09 01:47:16;;;;;;;3.57;1.67;;;;;;;;;;6218431;28;20274;-65
2023/08/09 01:50:21;;;;;;;1.63;1.53;;;;;;;;;;6230148;28;20198;-65
2023/08/09 01:53:22;;;;;;;2.10;1.50;;;;;;;;;;6240159;28;20180;-65
2023/08/09 01:56:23;;;;;;;3.20;2.10;;;;;;;;;;6221406;28;20195;-65
2023/08/09 01:59:24;;;;;;;2.03;1.27;;;;;;;;;;6207261;28;20198;-65
2023/08/09 02:02:25;;;;;;;3.90;1.67;;;;;;;;;;6221745;28;20205;-65
2023/08/09 02:05:26;;;;;;;2.87;1.40;;;;;;;;;;6222735;28;20225;-65
2023/08/09 02:08:27;;;;;;;7.10;1.50;;;;;;;;;;6223593;28;20210;-65
2023/08/09 02:11:28;;;;;;;2.43;1.53;;;;;;;;;;6223377;28;20190;-65
2023/08/09 02:14:29;;;;;;;3.43;1.60;;;;;;;;;;6222957;28;20219;-65
2023/08/09 02:17:31;;;;;;;3.40;1.60;;;;;;;;;;6218853;28;20195;-65
2023/08/09 02:20:32;;;;;;;1.93;1.40;;;;;;;;;;6221906;28;20254;-65
2023/08/09 02:23:33;;;;;;;4.03;1.83;;;;;;;;;;6215803;28;20278;-65
2023/08/09 02:26:34;;;;;;;2.70;1.80;;;;;;;;;;6235512;28;20214;-65
2023/08/09 02:29:36;;;;;;;2.93;1.90;;;;;;;;;;6218745;28;20196;-65
2023/08/09 02:32:37;;;;;;;3.77;1.80;;;;;;;;;;6228937;28;20270;-65
2023/08/09 02:35:56;;;;;;;4.23;1.50;;;;;;;;;;6220318;28;20177;-65
2023/08/09 02:38:57;;;;;;;4.03;2.13;;;;;;;;;;6233237;28;20271;-65
2023/08/09 02:41:59;;;;;;;3.77;1.90;;;;;;;;;;6223324;28;20190;-65
2023/08/09 02:45:00;;;;;;;3.20;1.70;;;;;;;;;;6223979;28;20204;-65
2023/08/09 02:48:01;;;;;;;2.67;1.80;;;;;;;;;;6238322;28;20223;-65
2023/08/09 02:51:03;;;;;;;3.13;1.57;;;;;;;;;;6206016;28;20195;-65
2023/08/09 02:54:05;;;;;;;2.07;1.53;;;;;;;;;;6233821;28;20196;-65
2023/08/09 02:57:07;;;;;;;3.13;1.90;;;;;;;;;;6222954;28;20196;-65
2023/08/09 03:00:08;;;;;;;1.93;1.40;;;;;;;;;;6231870;28;20199;-65
2023/08/09 03:03:09;;;;;;;2.67;1.70;;;;;;;;;;6214924;28;20200;-65
2023/08/09 03:06:10;;;;;;;2.67;1.43;;;;;;;;;;6215722;28;20230;-65
2023/08/09 03:09:11;;;;;;;2.00;1.80;;;;;;;;;;6220817;28;20216;-65
2023/08/09 03:12:12;;;;;;;5.60;1.83;;;;;;;;;;6204977;28;20194;-65
2023/08/09 03:15:15;;;;;;;3.27;1.73;;;;;;;;;;6208316;28;20204;-65
2023/08/09 03:18:16;;;;;;;3.60;2.00;;;;;;;;;;6220686;28;20223;-65
2023/08/09 03:21:17;;;;;;;1.93;1.53;;;;;;;;;;6218191;28;20198;-65
2023/08/09 03:24:18;;;;;;;3.07;2.10;;;;;;;;;;6219367;28;20231;-65
2023/08/09 03:27:19;;;;;;;4.87;2.23;;;;;;;;;;6221885;28;20346;-65
2023/08/09 03:30:20;;;;;;;2.90;1.57;;;;;;;;;;6226011;28;20283;-65
2023/08/09 03:33:22;;;;;;;5.57;2.13;;;;;;;;;;6221714;28;20209;-65
2023/08/09 03:36:23;;;;;;;3.83;2.43;;;;;;;;;;6220240;28;20190;-65
2023/08/09 03:39:25;;;;;;;3.30;2.03;;;;;;;;;;6215955;28;20231;-65
2023/08/09 03:42:26;;;;;;;2.90;1.80;;;;;;;;;;6220624;28;20202;-65
2023/08/09 03:45:27;;;;;;;3.53;1.80;;;;;;;;;;6220472;28;20187;-65
2023/08/09 03:48:28;;;;;;;3.83;1.87;;;;;;;;;;6205167;28;20269;-65
2023/08/09 03:51:30;;;;;;;4.57;1.70;;;;;;;;;;6206726;28;20279;-65
2023/08/09 03:54:31;;;;;;;3.87;2.10;;;;;;;;;;6222128;28;20198;-65
2023/08/09 03:57:32;;;;;;;2.73;1.77;;;;;;;;;;6218680;28;20633;-65
2023/08/09 04:00:33;;;;;;;2.30;1.70;;;;;;;;;;6216377;28;20195;-65
2023/08/09 04:03:34;;;;;;;2.77;1.97;;;;;;;;;;6217242;28;20198;-65
2023/08/09 04:06:35;;;;;;;4.67;1.83;;;;;;;;;;6221327;28;20211;-65
2023/08/09 04:09:36;;;;;;;2.13;1.80;;;;;;;;;;6221303;28;20195;-65
2023/08/09 04:12:37;;;;;;;3.57;2.10;;;;;;;;;;6219257;28;20184;-65
2023/08/09 04:15:38;;;;;;;3.20;1.90;;;;;;;;;;6238032;28;20215;-65
2023/08/09 04:18:39;;;;;;;3.47;2.17;;;;;;;;;;6226024;28;20222;-65
2023/08/09 04:21:40;;;;;;;3.47;2.00;;;;;;;;;;6213630;28;20349;-65
2023/08/09 04:24:41;;;;;;;3.00;1.83;;;;;;;;;;6204747;28;20191;-65
2023/08/09 04:27:42;;;;;;;6.50;1.87;;;;;;;;;;6209908;28;20220;-65
2023/08/09 04:30:43;;;;;;;4.80;2.10;;;;;;;;;;6203523;28;20199;-65
2023/08/09 04:33:49;;;;;;;5.13;2.37;;;;;;;;;;6222272;28;20218;-65
2023/08/09 04:36:52;;;;;;;3.60;2.10;;;;;;;;;;6226118;28;20222;-65
2023/08/09 04:39:53;;;;;;;2.67;2.20;;;;;;;;;;6217665;28;20241;-65
2023/08/09 04:42:54;;;;;;;5.93;2.20;;;;;;;;;;6222546;28;20238;-65
2023/08/09 04:45:55;;;;;;;2.80;1.70;;;;;;;;;;6235159;28;20186;-65
2023/08/09 04:48:57;;;;;;;4.10;2.43;;;;;;;;;;6233736;28;20257;-65
2023/08/09 04:51:58;;;;;;;4.67;2.00;;;;;;;;;;6224584;28;20197;-65
2023/08/09 04:54:59;;;;;;;4.50;2.53;;;;;;;;;;6230756;28;20307;-65
2023/08/09 04:58:01;;;;;;;3.57;2.07;;;;;;;;;;6240114;28;20199;-65
2023/08/09 05:01:02;;;;;;;6.23;2.27;;;;;;;;;;6239584;28;20290;-66
2023/08/09 05:04:03;;;;;;;5.13;2.10;;;;;;;;;;6216455;28;20192;-68
2023/08/09 05:07:04;;;;;;;2.63;1.93;;;;;;;;;;6221915;28;20218;-67
2023/08/09 05:10:06;;;;;;;5.13;2.30;;;;;;;;;;6208185;28;20196;-67
2023/08/09 05:13:07;;;;;;;2.93;2.17;;;;;;;;;;6223573;28;20250;-67
2023/08/09 05:16:08;;;;;;;2.83;2.23;;;;;;;;;;6220544;28;20196;-67
2023/08/09 05:19:09;;;;;;;3.37;2.40;;;;;;;;;;6217282;28;20192;-67
2023/08/09 05:22:10;;;;;;;6.93;2.33;;;;;;;;;;6224568;28;20210;-67
2023/08/09 05:25:11;;;;;;;5.40;2.40;;;;;;;;;;6220634;28;20191;-67
2023/08/09 05:28:13;;;;;;;4.33;2.70;;;;;;;;;;6222016;28;20214;-66
2023/08/09 05:31:14;;;;;;;5.23;2.20;;;;;;;;;;6212946;28;20191;-66
2023/08/09 05:34:15;;;;;;;3.20;2.00;;;;;;;;;;6225810;28;20190;-67
2023/08/09 05:37:16;;;;;;;3.30;2.43;;;;;;;;;;6216148;28;20288;-67
2023/08/09 05:40:17;;;;;;;3.87;2.13;;;;;;;;;;6237055;28;20279;-67
2023/08/09 05:43:18;;;;;;;2.97;2.00;;;;;;;;;;6233408;28;20202;-67
2023/08/09 05:46:20;;;;;;;2.80;1.90;;;;;;;;;;6210465;28;20199;-67
2023/08/09 05:49:21;;;;;;;2.63;2.30;;;;;;;;;;6221921;28;20224;-66
2023/08/09 05:52:22;;;;;;;5.40;2.67;;;;;;;;;;6217961;28;20199;-67
2023/08/09 05:55:23;;;;;;;3.87;2.20;;;;;;;;;;6219549;28;20257;-67
2023/08/09 05:58:24;;;;;;;2.90;2.20;;;;;;;;;;6207425;28;20253;-68
2023/08/09 06:01:25;;;;;;;4.33;2.40;;;;;;;;;;6212087;28;20211;-66
2023/08/09 06:04:26;;;;;;;3.17;2.30;;;;;;;;;;6200133;28;20275;-65
2023/08/09 06:07:28;;;;;;;6.47;2.37;;;;;;;;;;6219233;28;20212;-68
2023/08/09 06:10:29;;;;;;;2.40;2.20;;;;;;;;;;6234140;28;20211;-68
2023/08/09 06:13:30;;;;;;;4.40;2.67;;;;;;;;;;6205757;28;20191;-67
2023/08/09 06:16:31;;;;;;;4.00;2.40;;;;;;;;;;6212879;28;20192;-68
2023/08/09 06:19:33;;;;;;;3.07;2.27;;;;;;;;;;6221553;28;20199;-67
2023/08/09 06:22:34;;;;;;;5.10;2.40;;;;;;;;;;6238619;28;20201;-67
2023/08/09 06:25:35;;;;;;;3.23;2.10;;;;;;;;;;6223103;28;20191;-67
2023/08/09 06:28:36;;;;;;;2.43;1.93;;;;;;;;;;6208093;28;20216;-67
2023/08/09 06:31:37;;;;;;;3.50;2.30;;;;;;;;;;6222214;28;20198;-67
2023/08/09 06:34:38;;;;;;;4.37;2.37;;;;;;;;;;6207088;28;20187;-67
2023/08/09 06:37:39;;;;;;;3.27;2.80;;;;;;;;;;6235563;28;20225;-67
2023/08/09 06:40:40;;;;;;;6.20;2.20;;;;;;;;;;6201244;28;20202;-67
2023/08/09 06:43:41;;;;;;;4.07;2.77;;;;;;;;;;6214716;28;20195;-69
2023/08/09 06:46:44;;;;;;;3.03;2.00;;;;;;;;;;6230220;28;20230;-68
2023/08/09 06:49:45;;;;;;;3.37;2.30;;;;;;;;;;6225575;28;20190;-66
2023/08/09 06:52:46;;;;;;;2.67;2.10;;;;;;;;;;6219040;28;20195;-67
2023/08/09 06:55:47;;;;;;;2.60;2.27;;;;;;;;;;6227578;28;20203;-64
2023/08/09 06:58:48;;;;;;;3.67;2.20;;;;;;;;;;6217484;28;20187;-66
2023/08/09 07:01:49;;;;;;;3.67;2.50;;;;;;;;;;6216393;28;20342;-66
2023/08/09 07:04:52;;;;;;;3.50;2.53;;;;;;;;;;6214177;28;20195;-66
2023/08/09 07:07:54;;;;;;;4.63;2.20;;;;;;;;;;6225289;28;20207;-66
2023/08/09 07:10:55;;;;;;;2.93;2.40;;;;;;;;;;6209119;28;20184;-66
2023/08/09 07:13:57;;;;;;;3.17;2.00;;;;;;;;;;6234948;28;20187;-66
2023/08/09 07:16:58;;;;;;;3.70;2.10;;;;;;;;;;6229538;28;20257;-66
2023/08/09 07:19:59;;;;;;;2.23;1.93;;;;;;;;;;6237700;28;20203;-66
2023/08/09 07:23:00;;;;;;;2.97;2.43;;;;;;;;;;6216295;28;20219;-66
2023/08/09 07:26:01;;;;;;;3.60;2.63;;;;;;;;;;6216307;28;20430;-66
2023/08/09 07:29:03;;;;;;;4.67;2.53;;;;;;;;;;6229106;28;20219;-66
2023/08/09 07:32:04;;;;;;;7.87;3.57;;;;;;;;;;6220042;28;20243;-66
2023/08/09 07:35:05;;;;;;;4.03;2.50;;;;;;;;;;6201743;28;20223;-66
2023/08/09 07:38:06;;;;;;;4.23;2.80;;;;;;;;;;6220708;28;20244;-66
2023/08/09 07:41:07;;;;;;;4.37;2.33;;;;;;;;;;6231332;28;20200;-66
2023/08/09 07:44:08;;;;;;;4.40;2.33;;;;;;;;;;6217209;28;20187;-66
2023/08/09 07:47:09;;;;;;;4.43;2.07;;;;;;;;;;6217401;28;20211;-66
2023/08/09 07:50:11;;;;;;;3.60;2.50;;;;;;;;;;6219546;28;20195;-66
2023/08/09 07:53:12;;;;;;;3.93;2.33;;;;;;;;;;6211933;28;20199;-66
2023/08/09 07:56:14;;;;;;;2.90;2.00;;;;;;;;;;6228834;28;20205;-66
2023/08/09 07:59:15;;;;;;;3.20;2.17;;;;;;;;;;6221163;28;20211;-66
2023/08/09 08:02:16;;;;;;;2.80;2.37;;;;;;;;;;6219316;28;20195;-66
2023/08/09 08:05:17;;;;;;;2.67;2.20;;;;;;;;;;6219384;28;20294;-66
2023/08/09 08:08:18;;;;;;;2.67;2.13;;;;;;;;;;6205764;28;20207;-66
2023/08/09 08:11:19;;;;;;;2.33;1.90;;;;;;;;;;6219547;28;20198;-66
2023/08/09 08:14:22;;;;;;;3.43;2.10;;;;;;;;;;6216736;28;20211;-66
2023/08/09 08:17:23;;;;;;;3.00;1.97;;;;;;;;;;6219990;28;20204;-66
2023/08/09 08:20:24;;;;;;;2.30;2.10;;;;;;;;;;6214643;28;20195;-66
2023/08/09 08:23:25;;;;;;;2.67;2.27;;;;;;;;;;6218978;28;20187;-66
2023/08/09 08:26:27;;;;;;;3.20;2.27;;;;;;;;;;6218835;28;20232;-66
2023/08/09 08:29:28;;;;;;;2.20;1.90;;;;;;;;;;6219537;28;20214;-66
2023/08/09 08:32:29;;;;;;;2.63;2.30;;;;;;;;;;6218374;28;20191;-66
2023/08/09 08:35:36;;;;;;;3.50;2.10;;;;;;;;;;6213564;28;20207;-66
2023/08/09 08:38:37;;;;;;;1.60;1.50;;;;;;;;;;6224319;28;20235;-66
2023/08/09 08:41:38;;;;;;;2.20;2.00;;;;;;;;;;6235159;28;20202;-66
2023/08/09 08:44:39;;;;;;;1.50;1.40;;;;;;;;;;6219580;28;20214;-66
2023/08/09 08:47:41;;;;;;;2.40;2.00;;;;;;;;;;6208012;28;20321;-66
2023/08/09 08:50:43;;;;;;;5.37;2.30;;;;;;;;;;6204839;28;20209;-66
2023/08/09 08:53:44;;;;;;;10.87;2.43;;;;;;;;;;6217642;28;20336;-66
2023/08/09 08:56:46;;;;;;;5.00;2.20;;;;;;;;;;6221001;28;20200;-66
2023/08/09 08:59:48;;;;;;;2.93;2.13;;;;;;;;;;6237047;28;20279;-66
2023/08/09 09:02:49;;;;;;;2.97;2.10;;;;;;;;;;6226385;28;20292;-66
2023/08/09 09:05:50;;;;;;;2.97;2.60;;;;;;;;;;6210562;28;20192;-66
2023/08/09 09:08:55;;;;;;;3.87;2.50;;;;;;;;;;6211899;28;20206;-66
2023/08/09 09:11:56;;;;;;;3.90;2.63;;;;;;;;;;6230009;28;20190;-65
2023/08/09 09:14:58;;;;;;;2.70;2.10;;;;;;;;;;6215508;28;20259;-66
2023/08/09 09:18:05;;;;;;;3.37;2.13;;;;;;;;;;6202465;28;20191;-66
2023/08/09 09:21:09;;;;;;;3.50;2.57;;;;;;;;;;6232012;28;20338;-66
2023/08/09 09:24:11;;;;;;;2.77;1.83;;;;;;;;;;6229260;28;20195;-66
2023/08/09 09:27:14;;;;;;;3.83;2.30;;;;;;;;;;6240214;28;20265;-66
2023/08/09 09:30:15;;;;;;;3.40;2.37;;;;;;;;;;6235922;28;20215;-66
2023/08/09 09:33:16;;;;;;;3.60;2.50;;;;;;;;;;6216463;28;20222;-66
2023/08/09 09:36:18;;;;;;;4.17;2.07;;;;;;;;;;6221255;28;20183;-66
2023/08/09 09:39:19;;;;;;;4.23;2.60;;;;;;;;;;6231554;28;20226;-66
2023/08/09 09:42:30;;;;;;;4.27;2.53;;;;;;;;;;6236419;28;20209;-66
2023/08/09 09:45:32;;;;;;;2.70;2.23;;;;;;;;;;6234952;28;20238;-66
2023/08/09 09:48:33;;;;;;;2.57;2.07;;;;;;;;;;6241940;28;20213;-66
2023/08/09 09:51:35;;;;;;;5.33;2.40;;;;;;;;;;6219233;28;20258;-66
2023/08/09 09:54:36;;;;;;;2.93;2.23;;;;;;;;;;6230900;28;20195;-66
2023/08/09 09:57:37;;;;;;;3.17;2.53;;;;;;;;;;6225761;28;20210;-66
2023/08/09 10:00:41;;;;;;;5.90;2.87;;;;;;;;;;6237114;28;20198;-63
2023/08/09 10:03:43;;;;;;;4.77;2.20;;;;;;;;;;6238966;28;20187;-62
2023/08/09 10:06:46;;;;;;;6.07;3.13;;;;;;;;;;6224636;28;20211;-63
2023/08/09 10:09:47;;;;;;;3.27;2.40;;;;;;;;;;6236940;28;20186;-66
2023/08/09 10:12:52;;;;;;;4.73;2.47;;;;;;;;;;6223535;28;20176;-66
2023/08/09 10:16:05;;;;;;;6.07;2.40;;;;;;;;;;6221667;28;20195;-69
2023/08/09 10:19:11;;;;;;;2.50;2.20;;;;;;;;;;6225290;28;20237;-66
2023/08/09 10:22:13;;;;;;;3.43;1.87;;;;;;;;;;6232428;28;20187;-66
2023/08/09 10:25:14;;;;;;;3.37;1.70;;;;;;;;;;6208484;28;20202;-64
2023/08/09 10:28:15;;;;;;;4.90;2.40;;;;;;;;;;6231283;28;20265;-64
2023/08/09 10:31:35;;;;;;;3.20;2.10;;;;;;;;;;6225985;28;20188;-68
2023/08/09 10:34:40;;;;;;;5.33;2.10;;;;;;;;;;6230649;28;20183;-66
2023/08/09 10:37:41;;;;;;;2.97;2.07;;;;;;;;;;6233564;28;20228;-66
2023/08/09 10:40:43;;;;;;;3.47;2.17;;;;;;;;;;6217512;28;20198;-66
2023/08/09 10:43:44;;;;;;;2.50;1.60;;;;;;;;;;6230875;28;20202;-66
2023/08/09 10:46:47;;;;;;;2.90;1.97;;;;;;;;;;6217743;28;20244;-67
2023/08/09 10:49:48;;;;;;;2.43;1.87;;;;;;;;;;6222069;28;20195;-67
2023/08/09 10:52:49;;;;;;;2.50;2.20;;;;;;;;;;6237978;28;20587;-66
2023/08/09 10:55:50;;;;;;;2.03;1.83;;;;;;;;;;6221055;28;20195;-66
2023/08/09 10:58:52;;;;;;;2.67;2.10;;;;;;;;;;6234079;28;20225;-66
2023/08/09 11:01:54;;;;;;;1.83;1.70;;;;;;;;;;6224916;28;20187;-66
2023/08/09 11:04:56;;;;;;;2.30;1.70;;;;;;;;;;6220031;28;20187;-66
2023/08/09 11:07:59;;;;;;;2.00;1.80;;;;;;;;;;6223777;28;20214;-66
2023/08/09 11:11:01;;;;;;;3.13;1.80;;;;;;;;;;6219265;28;20188;-66
2023/08/09 11:14:03;;;;;;;3.07;2.17;;;;;;;;;;6231812;28;20191;-66
2023/08/09 11:17:04;;;;;;;2.43;1.90;;;;;;;;;;6241451;28;20183;-66
2023/08/09 11:20:13;;;;;;;2.23;2.03;;;;;;;;;;6218172;28;20203;-66
2023/08/09 11:23:14;;;;;;;2.77;2.10;;;;;;;;;;6237763;28;20195;-67
2023/08/09 11:26:15;;;;;;;2.23;1.83;;;;;;;;;;6222921;28;20244;-66
2023/08/09 11:29:18;;;;;;;1.70;1.60;;;;;;;;;;6203725;28;20226;-66
2023/08/09 11:32:27;;;;;;;4.43;1.83;;;;;;;;;;6224306;28;20286;-67
2023/08/09 11:35:32;;;;;;;1.73;1.63;;;;;;;;;;6223764;28;20192;-67
2023/08/09 11:38:33;;;;;;;2.50;1.60;;;;;;;;;;6233574;28;20277;-67
2023/08/09 11:41:42;;;;;;;1.90;1.60;;;;;;;;;;6217493;28;20198;-66
2023/08/09 11:44:43;;;;;;;4.17;2.10;;;;;;;;;;6226700;28;20250;-67
2023/08/09 11:47:49;;;;;;;3.77;1.70;;;;;;;;;;6223185;28;20222;-67
2023/08/09 11:51:03;;;;;;;4.37;2.13;;;;;;;;;;6230050;28;20190;-67
2023/08/09 11:54:08;;;;;;;2.97;2.10;;;;;;;;;;6236390;28;20179;-67
2023/08/09 11:57:09;;;;;;;1.60;1.50;;;;;;;;;;6220952;28;20207;-67
2023/08/09 12:00:10;;;;;;;2.00;1.80;;;;;;;;;;6237140;28;20199;-67
2023/08/09 12:03:11;;;;;;;5.03;2.20;;;;;;;;;;6226642;28;20192;-66
2023/08/09 12:06:12;;;;;;;4.43;2.27;;;;;;;;;;6205599;28;20191;-66
2023/08/09 12:09:34;;;;;;;3.43;2.30;;;;;;;;;;6230740;28;20216;-66
2023/08/09 12:12:36;;;;;;;2.80;1.63;;;;;;;;;;6238290;28;20191;-64
2023/08/09 12:15:37;;;;;;;2.80;1.80;;;;;;;;;;6218543;28;20196;-68
2023/08/09 12:18:39;;;;;;;2.57;1.37;;;;;;;;;;6229521;28;20199;-66
2023/08/09 12:21:40;;;;;;;2.60;1.70;;;;;;;;;;6222637;28;20222;-65
2023/08/09 12:24:44;;;;;;;3.17;1.90;;;;;;;;;;6223975;28;20282;-66
2023/08/09 12:27:45;;;;;;;3.17;1.90;;;;;;;;;;6219088;28;20215;-64
2023/08/09 12:30:46;;;;;;;3.13;2.70;;;;;;;;;;6229900;28;20238;-64
2023/08/09 12:33:47;;;;;;;2.73;2.50;;;;;;;;;;6239549;28;20194;-65
2023/08/09 12:36:48;;;;;;;4.20;2.77;;;;;;;;;;6239908;28;20222;-66
2023/08/09 12:39:49;;;;;;;4.17;2.43;;;;;;;;;;6229005;28;20302;-66
2023/08/09 12:42:51;;;;;;;3.17;2.20;;;;;;;;;;6233706;28;20187;-66
2023/08/09 12:45:52;;;;;;;3.37;2.40;;;;;;;;;;6229645;28;20322;-67
2023/08/09 12:48:53;;;;;;;3.13;2.60;;;;;;;;;;6207103;28;20223;-68
2023/08/09 12:51:54;;;;;;;2.43;2.23;;;;;;;;;;6239135;28;20253;-68
2023/08/09 12:54:55;;;;;;;2.80;2.43;;;;;;;;;;6220745;28;20226;-68
2023/08/09 12:57:56;;;;;;;3.77;2.93;;;;;;;;;;6242088;28;20286;-69
2023/08/09 13:00:57;;;;;;;3.90;3.00;;;;;;;;;;6227430;28;20188;-69
2023/08/09 13:03:58;;;;;;;4.67;3.13;;;;;;;;;;6233840;28;20219;-68
2023/08/09 13:06:59;;;;;;;4.13;2.57;;;;;;;;;;6226855;28;20215;-68
2023/08/09 13:10:00;;;;;;;5.07;2.90;;;;;;;;;;6223231;28;20187;-68
2023/08/09 13:13:01;;;;;;;2.40;2.20;;;;;;;;;;6238183;28;20549;-67
2023/08/09 13:16:03;;;;;;;4.20;3.33;;;;;;;;;;6227263;28;20191;-67
2023/08/09 13:19:05;;;;;;;4.73;3.37;;;;;;;;;;6211460;28;20203;-67
2023/08/09 13:22:06;;;;;;;6.70;3.53;;;;;;;;;;6226021;28;20194;-67
2023/08/09 13:25:08;;;;;;;4.43;3.73;;;;;;;;;;6230859;28;20195;-67
2023/08/09 13:28:09;;;;;;;3.60;3.20;;;;;;;;;;6241342;28;20214;-69
2023/08/09 13:31:10;;;;;;;4.60;3.03;;;;;;;;;;6237705;28;20226;-69
2023/08/09 13:34:11;;;;;;;5.00;3.53;;;;;;;;;;6235171;28;20195;-68
2023/08/09 13:37:12;;;;;;;3.30;3.00;;;;;;;;;;6218628;28;20345;-68
2023/08/09 13:40:15;;;;;;;3.20;2.70;;;;;;;;;;6235450;28;20207;-68
2023/08/09 13:43:16;;;;;;;4.00;2.97;;;;;;;;;;6236122;28;20188;-68
2023/08/09 13:46:17;;;;;;;3.50;2.83;;;;;;;;;;6217859;28;20203;-68
2023/08/09 13:49:18;;;;;;;3.50;2.90;;;;;;;;;;6234495;28;20211;-68
2023/08/09 13:52:19;;;;;;;2.90;2.60;;;;;;;;;;6222696;28;20187;-68
2023/08/09 13:55:20;;;;;;;5.70;2.93;;;;;;;;;;6226306;28;20194;-70
2023/08/09 13:58:21;;;;;;;3.27;2.80;;;;;;;;;;6225278;28;20199;-70
2023/08/09 14:01:22;;;;;;;2.73;2.53;;;;;;;;;;6218304;28;20210;-68
2023/08/09 14:04:23;;;;;;;3.67;2.30;;;;;;;;;;6209314;28;20199;-68
2023/08/09 14:07:24;;;;;;;2.63;2.00;;;;;;;;;;6209086;28;20214;-68
2023/08/09 14:10:25;;;;;;;2.33;2.13;;;;;;;;;;6222377;28;20216;-68
2023/08/09 14:13:26;;;;;;;1.90;1.80;;;;;;;;;;6221252;28;20277;-68
2023/08/09 14:16:27;;;;;;;2.70;1.60;;;;;;;;;;6202935;28;20226;-68
2023/08/09 14:19:28;;;;;;;3.73;2.60;;;;;;;;;;6214959;28;20229;-67
2023/08/09 14:22:29;;;;;;;2.70;2.10;;;;;;;;;;6213327;28;20327;-67
2023/08/09 14:25:30;;;;;;;2.03;1.83;;;;;;;;;;6218241;28;20648;-67
2023/08/09 14:28:32;;;;;;;3.40;2.10;;;;;;;;;;6218218;28;20207;-67
2023/08/09 14:31:36;;;;;;;4.53;2.10;;;;;;;;;;6234589;28;20242;-66
2023/08/09 14:34:37;;;;;;;4.30;2.90;;;;;;;;;;6242339;28;20278;-66
2023/08/09 14:37:38;;;;;;;2.60;2.37;;;;;;;;;;6217423;28;20246;-66
2023/08/09 14:40:40;;;;;;;2.90;2.60;;;;;;;;;;6228151;28;20190;-67
2023/08/09 14:43:41;;;;;;;2.63;2.43;;;;;;;;;;6225430;28;20198;-67
2023/08/09 14:46:42;;;;;;;2.83;2.40;;;;;;;;;;6212763;28;20187;-66
2023/08/09 14:49:43;;;;;;;2.73;2.43;;;;;;;;;;6216058;28;20224;-67
2023/08/09 14:52:44;;;;;;;3.00;2.47;;;;;;;;;;6225387;28;20285;-67
2023/08/09 14:55:47;;;;;;;3.03;2.73;;;;;;;;;;6232904;28;20278;-68
2023/08/09 14:58:53;;;;;;;2.83;2.40;;;;;;;;;;6224146;28;20199;-67
2023/08/09 15:01:54;;;;;;;3.17;2.20;;;;;;;;;;6216922;28;20197;-66
2023/08/09 15:04:56;;;;;;;3.67;2.53;;;;;;;;;;6223159;28;20202;-66
2023/08/09 15:07:57;;;;;;;2.40;2.17;;;;;;;;;;6223178;28;20242;-65
2023/08/09 15:11:00;;;;;;;2.20;2.00;;;;;;;;;;6227803;28;20201;-65
2023/08/09 15:14:02;;;;;;;4.30;2.40;;;;;;;;;;6233888;28;20227;-64
2023/08/09 15:17:06;;;;;;;4.10;2.77;;;;;;;;;;6237522;28;20202;-65
2023/08/09 15:20:11;;;;;;;2.77;2.43;;;;;;;;;;6212625;28;20203;-65
2023/08/09 15:23:12;;;;;;;2.53;2.20;;;;;;;;;;6204456;28;20222;-65
2023/08/09 15:26:13;;;;;;;4.37;2.23;;;;;;;;;;6216046;28;20279;-66
2023/08/09 15:29:14;;;;;;;2.37;2.00;;;;;;;;;;6206552;28;20239;-66
2023/08/09 15:32:15;;;;;;;3.47;1.80;;;;;;;;;;6226362;28;20195;-65
2023/08/09 15:35:16;;;;;;;2.57;1.93;;;;;;;;;;6209345;28;20195;-66
2023/08/09 15:38:17;;;;;;;2.97;1.80;;;;;;;;;;6206597;28;20279;-65
2023/08/09 15:41:18;;;;;;;3.27;2.20;;;;;;;;;;6223443;28;20199;-65
2023/08/09 15:44:19;;;;;;;2.07;1.87;;;;;;;;;;6221439;28;20199;-67
2023/08/09 15:47:20;;;;;;;3.63;2.17;;;;;;;;;;6230879;28;20272;-68
2023/08/09 15:50:22;;;;;;;2.63;2.20;;;;;;;;;;6223061;28;20190;-66
2023/08/09 15:53:23;;;;;;;3.30;2.47;;;;;;;;;;6219805;28;20199;-65
2023/08/09 15:56:24;;;;;;;2.20;1.90;;;;;;;;;;6224229;28;20195;-64
2023/08/09 15:59:26;;;;;;;2.33;1.80;;;;;;;;;;6216732;28;20199;-63
2023/08/09 16:02:27;;;;;;;2.57;1.80;;;;;;;;;;6227418;28;20275;-65
2023/08/09 16:05:29;;;;;;;4.40;2.00;;;;;;;;;;6228300;28;20278;-64
2023/08/09 16:08:30;;;;;;;3.40;2.10;;;;;;;;;;6220507;28;20229;-65
2023/08/09 16:11:31;;;;;;;2.80;2.17;;;;;;;;;;6231483;28;20194;-66
2023/08/09 16:14:33;;;;;;;2.83;2.00;;;;;;;;;;6215164;28;20210;-69
2023/08/09 16:17:34;;;;;;;2.57;2.30;;;;;;;;;;6231959;28;20201;-67
2023/08/09 16:20:35;;;;;;;2.63;1.53;;;;;;;;;;6231118;28;20204;-67
2023/08/09 16:23:36;;;;;;;1.60;1.50;;;;;;;;;;6226727;28;20206;-68
2023/08/09 16:26:38;;;;;;;1.83;1.63;;;;;;;;;;6224320;28;20196;-67
2023/08/09 16:29:39;;;;;;;2.03;1.80;;;;;;;;;;6229433;28;20218;-68
2023/08/09 16:32:40;;;;;;;3.20;2.00;;;;;;;;;;6211146;28;20191;-68
2023/08/09 16:35:41;;;;;;;2.67;1.70;;;;;;;;;;6242473;28;20230;-68
2023/08/09 16:38:42;;;;;;;2.33;1.80;;;;;;;;;;6236881;28;20249;-68
2023/08/09 16:41:43;;;;;;;1.80;1.50;;;;;;;;;;6228728;28;20229;-68
2023/08/09 16:44:44;;;;;;;3.20;1.70;;;;;;;;;;6234291;28;20198;-68
2023/08/09 16:47:46;;;;;;;2.00;1.80;;;;;;;;;;6228605;28;20249;-67
2023/08/09 16:50:47;;;;;;;2.30;1.80;;;;;;;;;;6243702;28;20285;-68
2023/08/09 16:53:48;;;;;;;3.67;2.37;;;;;;;;;;6222654;28;20199;-69
2023/08/09 16:56:49;;;;;;;2.37;2.17;;;;;;;;;;6205272;28;20234;-68
2023/08/09 16:59:51;;;;;;;2.83;1.53;;;;;;;;;;6237699;28;20233;-68
2023/08/09 17:02:52;;;;;;;2.20;1.43;;;;;;;;;;6218121;28;20310;-68
2023/08/09 17:05:53;;;;;;;1.80;1.53;;;;;;;;;;6229513;28;20211;-68
2023/08/09 17:08:54;;;;;;;1.93;1.70;;;;;;;;;;6217989;28;20206;-67
2023/08/09 17:11:55;;;;;;;2.50;1.60;;;;;;;;;;6238239;28;20265;-68
2023/08/09 17:14:56;;;;;;;2.27;2.07;;;;;;;;;;6233311;28;20269;-68
2023/08/09 17:17:58;;;;;;;1.70;1.60;;;;;;;;;;6227754;28;20190;-68
2023/08/09 17:20:59;;;;;;;3.10;1.70;;;;;;;;;;6224404;28;20254;-68
2023/08/09 17:24:00;;;;;;;1.83;1.73;;;;;;;;;;6228427;28;20298;-67
2023/08/09 17:27:02;;;;;;;2.53;1.80;;;;;;;;;;6230639;28;20210;-67
2023/08/09 17:30:06;;;;;;;2.60;1.67;;;;;;;;;;6228036;28;20236;-67
2023/08/09 17:33:07;;;;;;;2.00;1.80;;;;;;;;;;6227586;28;20202;-68
2023/08/09 17:36:09;;;;;;;2.50;1.77;;;;;;;;;;6223877;28;20195;-68
2023/08/09 17:39:10;;;;;;;3.00;1.60;;;;;;;;;;6238300;28;20235;-68
2023/08/09 17:42:12;;;;;;;3.13;1.83;;;;;;;;;;6233931;28;20214;-68
2023/08/09 17:45:13;;;;;;;2.33;1.90;;;;;;;;;;6233307;28;20330;-68
2023/08/09 17:48:14;;;;;;;2.50;1.77;;;;;;;;;;6214573;28;20232;-68
2023/08/09 17:51:15;;;;;;;4.43;2.03;;;;;;;;;;6218089;28;20211;-68
2023/08/09 17:54:16;;;;;;;2.40;2.00;;;;;;;;;;6207997;28;20249;-68
2023/08/09 17:57:18;;;;;;;3.03;1.97;;;;;;;;;;6212753;28;20198;-68
2023/08/09 18:00:21;;;;;;;2.00;1.90;;;;;;;;;;6236789;28;20214;-68
2023/08/09 18:03:24;;;;;;;2.10;1.90;;;;;;;;;;6238777;28;20238;-68
2023/08/09 18:06:25;;;;;;;3.27;1.97;;;;;;;;;;6238635;28;20199;-68
2023/08/09 18:09:27;;;;;;;2.10;1.90;;;;;;;;;;6215405;28;20294;-68